Time;durP1;ratioP1;P1;durP2;ratioP2;P2;SDS_P1;SDS_P2;PMS_P1;PMS_P2;Temp;Humidity;BMP_temperature;BMP_pressure;BME280_temperature;BME280_humidity;BME280_pressure;Samples;Min_cycle;Max_cycle;Signal;HPM_P1;HPM_P2
2022/07/05 00:02:05;;;;;;;4.20;1.10;;;13.50;99.90;;;;;;5017944;28;20022;-92
2022/07/05 00:04:31;;;;;;;2.50;1.00;;;13.50;99.90;;;;;;5000397;28;20076;-94
2022/07/05 00:09:41;;;;;;;4.35;1.90;;;13.50;99.90;;;;;;5016108;28;20085;-93
2022/07/05 00:12:07;;;;;;;4.88;2.15;;;13.60;99.90;;;;;;4999760;28;20117;-92
2022/07/05 00:14:32;;;;;;;5.97;1.35;;;13.60;99.90;;;;;;4999478;28;20018;-92
2022/07/05 00:16:58;;;;;;;4.95;1.17;;;13.60;99.90;;;;;;4999520;28;20030;-92
2022/07/05 00:19:24;;;;;;;6.13;2.20;;;13.60;99.90;;;;;;4999638;28;20025;-93
2022/07/05 00:21:49;;;;;;;6.05;1.20;;;13.60;99.90;;;;;;4974935;28;20018;-94
2022/07/05 00:24:15;;;;;;;4.70;2.13;;;13.60;99.90;;;;;;4999827;28;20108;-93
2022/07/05 00:26:42;;;;;;;4.22;1.10;;;13.60;99.90;;;;;;4999140;28;20069;-92
2022/07/05 00:29:08;;;;;;;5.60;1.15;;;13.60;99.90;;;;;;5015248;28;20028;-92
2022/07/05 00:31:35;;;;;;;5.03;1.30;;;13.60;99.90;;;;;;4995788;28;20124;-93
2022/07/05 00:34:01;;;;;;;5.63;1.25;;;13.60;99.90;;;;;;4998480;28;20112;-93
2022/07/05 00:36:26;;;;;;;4.57;1.85;;;13.60;99.90;;;;;;4999049;28;20360;-91
2022/07/05 00:38:52;;;;;;;8.43;1.42;;;13.60;99.90;;;;;;5002622;28;20037;-93
2022/07/05 00:41:18;;;;;;;7.25;1.50;;;13.60;99.90;;;;;;5004664;28;20030;-93
2022/07/05 00:44:27;;;;;;;7.50;2.10;;;13.60;99.90;;;;;;4999626;28;20109;-92
2022/07/05 00:46:53;;;;;;;5.38;1.63;;;13.50;99.90;;;;;;4934807;29;20103;-92
2022/07/05 00:49:19;;;;;;;10.20;1.63;;;13.50;99.90;;;;;;4955236;29;20108;-92
2022/07/05 00:51:44;;;;;;;6.85;1.90;;;13.50;99.90;;;;;;4930844;29;20051;-92
2022/07/05 00:54:10;;;;;;;8.48;1.45;;;13.50;99.90;;;;;;4955194;29;20471;-91
2022/07/05 00:56:35;;;;;;;9.02;1.50;;;13.50;99.90;;;;;;4954673;29;20065;-92
2022/07/05 00:59:01;;;;;;;3.25;1.40;;;13.40;99.90;;;;;;4938593;29;20540;-92
2022/07/05 01:01:27;;;;;;;8.10;1.20;;;13.50;99.90;;;;;;4955088;28;20069;-93
2022/07/05 01:03:53;;;;;;;10.93;1.80;;;13.50;99.90;;;;;;4956153;29;20023;-92
2022/07/05 01:06:19;;;;;;;5.15;1.40;;;13.60;99.90;;;;;;4932293;29;20027;-92
2022/07/05 01:08:46;;;;;;;4.57;1.50;;;13.60;99.90;;;;;;4933491;29;20059;-92
2022/07/05 01:11:14;;;;;;;9.32;1.40;;;13.60;99.90;;;;;;4957121;29;20290;-92
2022/07/05 01:13:39;;;;;;;8.77;1.90;;;13.60;99.90;;;;;;4966199;29;20023;-92
2022/07/05 01:16:05;;;;;;;6.35;1.38;;;13.60;99.90;;;;;;4949478;29;20035;-90
2022/07/05 01:18:32;;;;;;;4.10;1.17;;;13.60;99.90;;;;;;4958262;29;20034;-93
2022/07/05 01:20:59;;;;;;;10.05;1.65;;;13.60;99.90;;;;;;4957149;28;20037;-93
2022/07/05 01:23:31;;;;;;;4.93;1.30;;;13.60;99.90;;;;;;5016408;28;20495;-92
2022/07/05 01:26:04;;;;;;;5.60;1.40;;;13.50;99.90;;;;;;4997258;28;20036;-92
2022/07/05 01:28:30;;;;;;;8.30;1.38;;;13.40;99.90;;;;;;4998420;28;20483;-93
2022/07/05 01:30:56;;;;;;;4.70;1.17;;;13.40;99.90;;;;;;4997864;28;20037;-93
2022/07/05 01:33:28;;;;;;;4.22;1.30;;;13.40;99.90;;;;;;4997647;28;20450;-93
2022/07/05 01:35:55;;;;;;;3.58;1.25;;;13.30;99.90;;;;;;4995628;28;20080;-93
2022/07/05 01:38:21;;;;;;;5.97;1.30;;;13.30;99.90;;;;;;4997873;28;20072;-91
2022/07/05 01:40:50;;;;;;;4.10;1.10;;;13.20;99.90;;;;;;4997339;28;20431;-91
2022/07/05 01:43:19;;;;;;;4.03;1.00;;;13.20;99.90;;;;;;5012116;28;20033;-92
2022/07/05 01:45:47;;;;;;;8.48;1.30;;;13.20;99.90;;;;;;4997788;28;20030;-92
2022/07/05 01:48:17;;;;;;;4.45;1.35;;;13.20;99.90;;;;;;4997754;28;20026;-92
2022/07/05 01:50:59;;;;;;;9.38;1.25;;;13.10;99.90;;;;;;4997613;28;20423;-92
2022/07/05 01:53:30;;;;;;;7.13;1.17;;;13.10;99.90;;;;;;5014472;28;20083;-93
2022/07/05 01:56:06;;;;;;;2.08;0.80;;;13.10;99.90;;;;;;4984729;28;20112;-93
2022/07/05 01:58:34;;;;;;;8.77;1.52;;;13.10;99.90;;;;;;5014760;28;20078;-90
2022/07/05 02:01:00;;;;;;;11.70;1.20;;;13.00;99.90;;;;;;5015186;28;20041;-92
2022/07/05 02:03:30;;;;;;;4.38;1.42;;;13.00;99.90;;;;;;4981196;28;20052;-92
2022/07/05 02:05:57;;;;;;;2.85;0.95;;;13.00;99.90;;;;;;4997103;28;20118;-93
2022/07/05 02:08:30;;;;;;;8.32;1.50;;;13.00;99.90;;;;;;4997014;28;20109;-90
2022/07/05 02:10:56;;;;;;;3.47;1.00;;;13.00;99.90;;;;;;4994670;28;20557;-93
2022/07/05 02:13:22;;;;;;;4.47;1.20;;;13.00;99.90;;;;;;4997484;28;20030;-92
2022/07/05 02:15:48;;;;;;;3.22;1.15;;;12.90;99.90;;;;;;5013604;28;20048;-93
2022/07/05 02:18:13;;;;;;;5.47;1.00;;;12.90;99.90;;;;;;4985630;28;20061;-93
2022/07/05 02:20:40;;;;;;;6.68;1.30;;;12.90;99.90;;;;;;5013604;28;20018;-93
2022/07/05 02:23:06;;;;;;;3.40;0.90;;;12.90;99.90;;;;;;4996317;28;20034;-89
2022/07/05 02:25:32;;;;;;;7.10;2.28;;;12.90;99.90;;;;;;4996138;28;20017;-91
2022/07/05 02:27:58;;;;;;;5.60;1.73;;;12.90;99.90;;;;;;5020834;28;20037;-88
2022/07/05 02:30:24;;;;;;;7.63;1.20;;;12.90;99.90;;;;;;5018371;28;20044;-86
2022/07/05 02:32:50;;;;;;;4.63;1.00;;;12.80;99.90;;;;;;5014616;28;20021;-90
2022/07/05 02:35:16;;;;;;;8.02;1.20;;;12.90;99.90;;;;;;5031581;28;20085;-92
2022/07/05 02:37:41;;;;;;;4.28;1.08;;;12.80;99.90;;;;;;5000946;28;20037;-90
2022/07/05 02:40:13;;;;;;;6.38;1.40;;;12.80;99.90;;;;;;4998591;28;20529;-92
2022/07/05 02:42:39;;;;;;;3.83;1.02;;;12.80;99.90;;;;;;4995921;28;20029;-86
2022/07/05 02:45:06;;;;;;;6.50;1.10;;;12.80;99.90;;;;;;4997431;28;20045;-90
2022/07/05 02:47:33;;;;;;;6.32;1.35;;;12.80;99.90;;;;;;4997204;28;20018;-92
2022/07/05 02:50:09;;;;;;;4.30;1.10;;;12.80;99.90;;;;;;4996991;28;20097;-90
2022/07/05 02:52:35;;;;;;;6.82;1.33;;;12.70;99.90;;;;;;5009362;28;20044;-92
2022/07/05 02:55:02;;;;;;;3.35;1.15;;;12.70;99.90;;;;;;4996546;28;20030;-92
2022/07/05 02:57:30;;;;;;;5.57;1.45;;;12.70;99.90;;;;;;5014156;28;20030;-91
2022/07/05 02:59:57;;;;;;;4.60;1.75;;;12.70;99.90;;;;;;4991663;28;20049;-92
2022/07/05 03:02:27;;;;;;;7.28;1.20;;;12.70;99.90;;;;;;5014148;28;20029;-91
2022/07/05 03:04:54;;;;;;;3.25;1.17;;;12.60;99.90;;;;;;4996601;28;20056;-91
2022/07/05 03:07:20;;;;;;;8.07;1.45;;;12.60;99.90;;;;;;4977602;28;20045;-92
2022/07/05 03:09:46;;;;;;;5.45;1.10;;;12.60;99.90;;;;;;5003500;28;20038;-91
2022/07/05 03:12:11;;;;;;;3.70;1.15;;;12.60;99.90;;;;;;4996845;28;20038;-91
2022/07/05 03:14:37;;;;;;;4.28;1.20;;;12.60;99.90;;;;;;4972438;28;20084;-91
2022/07/05 03:17:03;;;;;;;6.70;1.10;;;12.60;99.90;;;;;;4996638;28;20036;-92
2022/07/05 03:19:29;;;;;;;11.52;1.30;;;12.60;99.90;;;;;;4996232;28;20371;-90
2022/07/05 03:21:54;;;;;;;7.55;1.48;;;12.50;99.90;;;;;;4971999;28;20060;-88
2022/07/05 03:24:20;;;;;;;4.00;1.38;;;12.50;99.90;;;;;;4994447;28;20029;-92
2022/07/05 03:26:48;;;;;;;6.97;1.50;;;12.50;99.90;;;;;;4995769;28;20116;-89
2022/07/05 03:29:15;;;;;;;8.27;1.55;;;12.50;99.90;;;;;;4993306;28;20504;-91
2022/07/05 03:31:47;;;;;;;10.82;1.40;;;12.50;99.90;;;;;;5013383;28;20071;-93
2022/07/05 03:34:13;;;;;;;6.15;1.48;;;12.50;99.90;;;;;;5013403;28;20025;-93
2022/07/05 03:36:42;;;;;;;6.97;1.58;;;12.50;99.90;;;;;;4995960;28;20372;-92
2022/07/05 03:39:08;;;;;;;11.82;1.50;;;12.50;99.90;;;;;;5013209;28;20056;-92
2022/07/05 03:41:34;;;;;;;11.25;1.98;;;12.50;99.90;;;;;;5007866;28;20041;-92
2022/07/05 03:44:00;;;;;;;7.65;1.50;;;12.50;99.90;;;;;;4979898;28;20030;-92
2022/07/05 03:46:25;;;;;;;5.97;2.00;;;12.50;99.90;;;;;;4972330;28;20061;-90
2022/07/05 03:48:52;;;;;;;7.05;1.20;;;12.40;99.90;;;;;;4995181;28;20499;-92
2022/07/05 03:51:18;;;;;;;6.63;1.48;;;12.50;99.90;;;;;;5012842;28;20030;-92
2022/07/05 03:53:43;;;;;;;5.43;1.20;;;12.50;99.90;;;;;;5000696;28;20022;-85
2022/07/05 03:56:09;;;;;;;8.93;1.40;;;12.50;99.90;;;;;;5013519;28;20060;-88
2022/07/05 03:58:35;;;;;;;2.97;1.20;;;12.50;99.90;;;;;;4998443;28;20029;-91
2022/07/05 04:01:01;;;;;;;4.45;1.23;;;12.50;99.90;;;;;;4996482;28;20120;-90
2022/07/05 04:03:26;;;;;;;4.25;1.50;;;12.50;99.90;;;;;;4995894;28;20022;-89
2022/07/05 04:05:52;;;;;;;11.93;1.20;;;12.50;99.90;;;;;;4995850;28;20037;-89
2022/07/05 04:08:18;;;;;;;3.38;1.38;;;12.50;99.90;;;;;;4995894;28;20022;-92
2022/07/05 04:10:43;;;;;;;5.72;1.20;;;12.40;99.90;;;;;;5012897;28;20129;-92
2022/07/05 04:13:09;;;;;;;3.13;1.13;;;12.40;99.90;;;;;;4994977;28;20088;-91
2022/07/05 04:15:35;;;;;;;7.13;1.45;;;12.40;99.90;;;;;;4995327;28;20533;-91
2022/07/05 04:18:01;;;;;;;5.82;1.25;;;12.40;99.90;;;;;;4977205;28;20412;-90
2022/07/05 04:20:27;;;;;;;8.88;1.23;;;12.40;99.90;;;;;;4995350;28;20022;-92
2022/07/05 04:22:55;;;;;;;11.43;1.50;;;12.40;99.90;;;;;;5001009;28;20057;-91
2022/07/05 04:25:20;;;;;;;7.35;1.60;;;12.40;99.90;;;;;;5000098;28;20030;-90
2022/07/05 04:27:53;;;;;;;3.55;1.08;;;12.40;99.90;;;;;;4996540;28;20037;-92
2022/07/05 04:30:22;;;;;;;7.20;1.48;;;12.50;99.90;;;;;;4993413;28;20021;-92
2022/07/05 04:32:49;;;;;;;6.80;1.30;;;12.50;99.90;;;;;;4995442;28;20053;-92
2022/07/05 04:35:21;;;;;;;8.30;2.25;;;12.50;99.90;;;;;;4995512;28;20037;-90
2022/07/05 04:37:47;;;;;;;8.90;1.35;;;12.50;99.90;;;;;;5015092;28;20025;-91
2022/07/05 04:40:14;;;;;;;6.05;1.20;;;12.60;99.90;;;;;;5016336;28;20029;-92
2022/07/05 04:42:42;;;;;;;9.43;1.30;;;12.60;99.90;;;;;;4998762;28;20026;-92
2022/07/05 04:45:08;;;;;;;6.28;1.30;;;12.60;99.90;;;;;;4998390;28;20037;-93
2022/07/05 04:47:34;;;;;;;7.38;1.30;;;12.70;99.90;;;;;;4982599;28;20034;-91
2022/07/05 04:50:01;;;;;;;5.15;1.25;;;12.70;99.90;;;;;;4998464;28;20117;-92
2022/07/05 04:52:27;;;;;;;9.40;1.80;;;12.70;99.90;;;;;;5016698;28;20034;-90
2022/07/05 04:54:58;;;;;;;4.43;1.13;;;12.70;99.90;;;;;;4998858;28;20053;-92
2022/07/05 04:57:24;;;;;;;3.60;1.38;;;12.80;99.90;;;;;;5016420;28;20041;-93
2022/07/05 04:59:50;;;;;;;6.90;1.52;;;12.80;99.90;;;;;;5015745;28;20506;-92
2022/07/05 05:02:16;;;;;;;6.90;1.35;;;12.80;99.90;;;;;;4998829;28;20076;-92
2022/07/05 05:04:47;;;;;;;8.77;1.45;;;12.80;99.90;;;;;;4999018;28;20038;-92
2022/07/05 05:07:12;;;;;;;5.13;1.40;;;12.90;99.90;;;;;;5016648;28;20019;-91
2022/07/05 05:09:41;;;;;;;5.80;1.52;;;12.90;99.90;;;;;;4999560;28;20030;-94
2022/07/05 05:12:07;;;;;;;8.30;1.48;;;12.90;99.90;;;;;;4998767;28;20190;-92
2022/07/05 05:14:35;;;;;;;6.75;1.20;;;12.90;99.90;;;;;;5025375;28;20009;-87
2022/07/05 05:17:01;;;;;;;8.30;1.92;;;13.00;99.90;;;;;;5010217;28;20022;-93
2022/07/05 05:19:27;;;;;;;7.53;1.52;;;13.00;99.90;;;;;;5000845;28;20022;-93
2022/07/05 05:21:53;;;;;;;6.18;1.70;;;13.10;99.90;;;;;;4999672;28;20030;-92
2022/07/05 05:24:18;;;;;;;6.43;1.60;;;13.10;99.90;;;;;;5028722;28;20021;-90
2022/07/05 05:26:44;;;;;;;12.00;1.83;;;13.10;99.90;;;;;;5017179;28;20531;-93
2022/07/05 05:29:09;;;;;;;7.80;1.83;;;13.10;99.90;;;;;;4999156;28;20133;-92
2022/07/05 05:31:35;;;;;;;9.50;1.80;;;13.10;99.90;;;;;;4998192;28;20088;-93
2022/07/05 05:34:01;;;;;;;6.65;1.30;;;13.20;99.90;;;;;;4997707;28;20391;-92
2022/07/05 05:36:27;;;;;;;9.55;1.40;;;13.20;99.90;;;;;;4997405;28;20025;-91
2022/07/05 05:38:52;;;;;;;7.45;2.13;;;13.20;99.90;;;;;;5014642;28;20026;-91
2022/07/05 05:41:18;;;;;;;6.43;1.35;;;13.20;99.90;;;;;;4996848;28;20022;-94
2022/07/05 05:43:44;;;;;;;4.65;1.40;;;13.20;99.90;;;;;;4996577;28;20061;-94
2022/07/05 05:46:09;;;;;;;4.85;1.20;;;13.20;99.90;;;;;;4997104;28;20113;-92
2022/07/05 05:48:35;;;;;;;9.68;2.03;;;13.20;99.90;;;;;;4996320;28;20032;-94
2022/07/05 05:51:01;;;;;;;9.48;1.50;;;13.20;99.90;;;;;;4997568;28;20034;-91
2022/07/05 05:53:26;;;;;;;6.93;1.65;;;13.20;99.90;;;;;;4998036;28;20018;-91
2022/07/05 05:55:52;;;;;;;8.27;1.30;;;13.30;99.90;;;;;;4997169;28;20438;-92
2022/07/05 05:58:23;;;;;;;6.15;1.60;;;13.30;99.90;;;;;;5014856;28;20488;-93
2022/07/05 06:00:52;;;;;;;4.43;1.30;;;13.30;99.90;;;;;;4997499;28;20080;-93
2022/07/05 06:03:26;;;;;;;6.97;1.10;;;13.20;99.90;;;;;;4996139;28;20033;-93
2022/07/05 06:05:53;;;;;;;8.55;1.40;;;13.20;99.90;;;;;;4997107;28;20029;-89
2022/07/05 06:08:21;;;;;;;7.70;1.23;;;13.10;99.90;;;;;;4996926;28;20036;-92
2022/07/05 06:10:51;;;;;;;5.53;1.30;;;13.10;99.90;;;;;;4997088;28;20046;-91
2022/07/05 06:13:17;;;;;;;;;;;13.10;99.90;;;;;;5013899;28;20498;-90
2022/07/05 06:15:43;;;;;;;7.38;1.50;;;13.10;99.90;;;;;;5005014;28;19905;-91
2022/07/05 06:18:10;;;;;;;7.35;1.60;;;13.20;99.90;;;;;;5000111;28;20021;-94
2022/07/05 06:20:37;;;;;;;8.02;1.23;;;13.30;99.90;;;;;;4970683;28;20468;-95
2022/07/05 06:23:05;;;;;;;7.88;1.67;;;13.40;99.90;;;;;;4972885;28;20026;-91
2022/07/05 06:25:31;;;;;;;3.80;1.17;;;13.50;99.90;;;;;;4997127;28;20109;-93
2022/07/05 06:28:00;;;;;;;5.13;1.45;;;13.60;99.90;;;;;;5014871;28;20018;-93
2022/07/05 06:30:27;;;;;;;5.63;1.33;;;13.60;99.90;;;;;;4996895;28;20052;-93
2022/07/05 06:32:54;;;;;;;9.40;1.30;;;13.70;99.90;;;;;;4998093;28;20124;-92
2022/07/05 06:35:20;;;;;;;7.07;1.75;;;13.80;99.90;;;;;;5012022;28;20026;-93
2022/07/05 06:37:55;;;;;;;8.52;1.65;;;13.90;99.90;;;;;;5005792;28;20034;-95
2022/07/05 06:40:29;;;;;;;6.18;1.35;;;14.10;99.90;;;;;;4994971;28;20029;-91
2022/07/05 06:42:57;;;;;;;22.85;2.03;;;14.20;99.90;;;;;;5016874;28;20040;-93
2022/07/05 06:45:25;;;;;;;8.25;1.85;;;14.30;99.90;;;;;;4997160;28;20033;-92
2022/07/05 06:47:58;;;;;;;4.70;1.17;;;14.30;99.90;;;;;;4997308;28;20096;-93
2022/07/05 06:50:26;;;;;;;10.50;1.77;;;14.40;99.90;;;;;;4997714;28;20069;-91
2022/07/05 06:52:52;;;;;;;4.47;1.17;;;14.40;99.90;;;;;;4997037;28;20405;-94
2022/07/05 06:55:17;;;;;;;6.35;1.50;;;14.40;99.90;;;;;;4993343;28;20049;-94
2022/07/05 06:57:45;;;;;;;5.05;1.10;;;14.40;99.90;;;;;;4992703;28;20084;-93
2022/07/05 07:00:13;;;;;;;6.43;1.00;;;14.40;99.90;;;;;;4995515;28;20411;-91
2022/07/05 07:02:39;;;;;;;6.80;1.75;;;14.40;99.90;;;;;;4998451;28;20022;-91
2022/07/05 07:05:05;;;;;;;8.50;1.60;;;14.40;99.90;;;;;;4998216;28;20045;-94
2022/07/05 07:10:16;;;;;;;7.55;1.30;;;14.50;99.90;;;;;;5013490;28;20057;-92
2022/07/05 07:12:43;;;;;;;10.52;1.75;;;14.60;99.90;;;;;;4989721;28;20035;-92
2022/07/05 07:15:09;;;;;;;12.07;1.80;;;14.60;99.90;;;;;;4976773;28;20165;-93
2022/07/05 07:17:35;;;;;;;7.03;1.08;;;14.70;99.90;;;;;;4976381;28;20034;-90
2022/07/05 07:20:00;;;;;;;6.35;1.30;;;14.70;99.90;;;;;;4976138;28;20197;-93
2022/07/05 07:22:26;;;;;;;12.48;1.58;;;14.80;99.90;;;;;;5002020;28;20026;-95
2022/07/05 07:24:53;;;;;;;7.55;1.60;;;14.80;99.90;;;;;;4996512;28;20037;-93
2022/07/05 07:27:18;;;;;;;7.50;1.15;;;14.90;99.90;;;;;;4996929;28;20033;-93
2022/07/05 07:29:45;;;;;;;6.75;1.58;;;14.90;99.90;;;;;;4999563;28;20247;-93
2022/07/05 07:32:11;;;;;;;7.85;1.38;;;14.90;99.90;;;;;;5014501;28;20261;-92
2022/07/05 07:34:40;;;;;;;7.30;1.08;;;14.90;99.90;;;;;;4996794;28;20060;-93
2022/07/05 07:37:13;;;;;;;5.03;1.40;;;14.80;99.90;;;;;;4997248;28;20503;-94
2022/07/05 07:39:39;;;;;;;10.02;1.67;;;14.90;99.90;;;;;;4997172;28;20030;-93
2022/07/05 07:42:05;;;;;;;6.22;1.83;;;14.90;99.90;;;;;;5014651;28;20022;-93
2022/07/05 07:44:31;;;;;;;8.35;1.50;;;14.90;99.90;;;;;;4996838;28;20057;-93
2022/07/05 07:46:56;;;;;;;13.75;1.65;;;15.00;99.90;;;;;;4997509;28;20029;-93
2022/07/05 07:49:22;;;;;;;10.90;1.20;;;15.00;99.90;;;;;;4999809;28;20041;-95
2022/07/05 07:51:48;;;;;;;8.23;1.40;;;15.10;99.90;;;;;;4999133;28;20038;-94
2022/07/05 07:54:14;;;;;;;8.98;2.03;;;15.10;99.90;;;;;;5003319;28;20026;-94
2022/07/05 07:56:40;;;;;;;3.28;1.20;;;15.20;99.90;;;;;;5015717;28;20037;-90
2022/07/05 07:59:06;;;;;;;7.93;1.67;;;15.30;99.90;;;;;;5003592;28;20105;-96
2022/07/05 08:01:31;;;;;;;6.30;0.90;;;15.30;99.90;;;;;;4999878;28;20042;-95
2022/07/05 08:03:57;;;;;;;8.52;1.02;;;15.30;99.90;;;;;;5000882;28;20025;-94
2022/07/05 08:06:23;;;;;;;14.02;2.75;;;15.20;99.90;;;;;;5010087;28;20079;-94
2022/07/05 08:08:49;;;;;;;9.50;1.67;;;15.10;99.90;;;;;;5004744;28;20109;-94
2022/07/05 08:11:14;;;;;;;9.02;1.10;;;15.10;99.90;;;;;;5000369;28;20338;-94
2022/07/05 08:13:42;;;;;;;10.85;1.85;;;15.00;99.90;;;;;;5022651;28;20030;-95
2022/07/05 08:16:09;;;;;;;6.15;1.27;;;15.00;99.90;;;;;;5007294;28;20068;-95
2022/07/05 08:21:31;;;;;;;5.55;1.20;;;15.00;99.90;;;;;;5024555;28;20041;-95
2022/07/05 08:24:02;;;;;;;7.03;1.80;;;15.10;99.90;;;;;;5003715;28;20061;-95
2022/07/05 08:26:30;;;;;;;9.10;2.08;;;15.10;99.90;;;;;;5003842;28;20026;-93
2022/07/05 08:28:58;;;;;;;10.05;1.23;;;15.20;99.90;;;;;;5002844;28;20579;-94
2022/07/05 08:31:24;;;;;;;9.23;0.95;;;15.20;99.90;;;;;;5019902;28;20029;-94
2022/07/05 08:33:50;;;;;;;8.55;1.25;;;15.30;99.90;;;;;;5022239;28;20033;-92
2022/07/05 08:36:17;;;;;;;6.80;1.05;;;15.30;99.90;;;;;;5001469;28;20050;-92
2022/07/05 08:38:42;;;;;;;4.95;0.90;;;15.30;99.90;;;;;;5001945;28;20085;-92
2022/07/05 08:41:10;;;;;;;6.53;1.48;;;15.50;99.90;;;;;;5002006;28;20053;-94
2022/07/05 08:43:40;;;;;;;6.72;1.00;;;15.60;99.90;;;;;;5002090;28;20026;-95
2022/07/05 08:46:09;;;;;;;7.95;1.48;;;15.70;99.90;;;;;;5002228;28;20034;-94
2022/07/05 08:48:41;;;;;;;5.70;0.88;;;15.70;99.90;;;;;;5007584;28;20025;-95
2022/07/05 08:51:17;;;;;;;3.40;0.80;;;15.70;99.90;;;;;;5005573;28;20091;-95
2022/07/05 08:53:44;;;;;;;3.92;0.90;;;15.80;99.90;;;;;;5003053;28;20022;-94
2022/07/05 08:56:12;;;;;;;7.53;2.13;;;15.80;99.90;;;;;;5001621;28;20467;-94
2022/07/05 08:58:38;;;;;;;7.25;0.70;;;15.90;99.90;;;;;;5001612;28;20088;-95
2022/07/05 09:01:05;;;;;;;5.00;0.88;;;16.00;99.90;;;;;;5019767;28;20030;-94
2022/07/05 09:03:33;;;;;;;3.38;1.42;;;16.10;99.90;;;;;;5000888;28;20080;-94
2022/07/05 09:06:02;;;;;;;2.80;0.90;;;16.40;99.90;;;;;;5001384;28;20037;-94
2022/07/05 09:08:33;;;;;;;3.13;0.90;;;16.50;99.90;;;;;;4999738;28;20025;-94
2022/07/05 09:11:02;;;;;;;1.45;0.63;;;16.70;99.90;;;;;;4999540;28;20069;-94
2022/07/05 09:13:32;;;;;;;3.25;0.70;;;17.00;99.90;;;;;;5000392;28;20040;-94
2022/07/05 09:15:58;;;;;;;3.78;0.70;;;17.20;99.90;;;;;;5026591;28;20530;-95
2022/07/05 09:18:47;;;;;;;2.13;0.68;;;17.30;99.40;;;;;;5029509;28;20038;-95
2022/07/05 09:21:14;;;;;;;3.60;0.75;;;17.50;99.10;;;;;;5019958;28;20030;-94
2022/07/05 09:23:40;;;;;;;3.78;1.10;;;17.40;98.60;;;;;;5017693;28;20030;-94
2022/07/05 09:26:06;;;;;;;1.85;0.82;;;17.40;98.50;;;;;;5001165;28;20083;-94
2022/07/05 09:28:32;;;;;;;3.70;1.10;;;17.40;98.70;;;;;;5000486;28;20497;-95
2022/07/05 09:30:57;;;;;;;2.22;0.80;;;17.30;98.70;;;;;;5000472;28;20117;-94
2022/07/05 09:33:23;;;;;;;1.60;0.70;;;17.30;99.00;;;;;;5000647;28;20486;-94
2022/07/05 09:36:01;;;;;;;2.67;0.70;;;17.30;99.40;;;;;;5000642;28;20079;-94
2022/07/05 09:38:27;;;;;;;2.55;0.70;;;17.30;99.60;;;;;;5000719;28;20028;-95
2022/07/05 09:40:55;;;;;;;1.48;0.65;;;17.30;99.70;;;;;;5000404;28;20117;-93
2022/07/05 09:43:23;;;;;;;3.25;0.98;;;17.30;99.90;;;;;;4999599;28;20048;-94
2022/07/05 09:46:02;;;;;;;1.52;0.60;;;17.20;99.90;;;;;;5018178;28;20119;-95
2022/07/05 09:48:29;;;;;;;1.25;0.70;;;17.30;99.90;;;;;;5000623;28;20018;-96
2022/07/05 09:51:12;;;;;;;0.40;0.30;;;17.40;99.90;;;;;;5002031;28;20448;-95
2022/07/05 09:53:46;;;;;;;2.50;0.40;;;17.40;99.90;;;;;;5000150;28;20033;-94
2022/07/05 09:56:12;;;;;;;2.55;0.50;;;17.50;99.90;;;;;;5004709;28;20097;-91
2022/07/05 09:58:38;;;;;;;5.35;0.80;;;17.40;99.80;;;;;;5017853;28;20034;-94
2022/07/05 10:01:29;;;;;;;2.25;0.43;;;17.40;99.90;;;;;;5001425;28;20026;-94
2022/07/05 10:03:58;;;;;;;1.88;0.40;;;17.40;99.90;;;;;;5000042;28;20045;-95
2022/07/05 10:06:26;;;;;;;2.55;0.68;;;17.40;99.90;;;;;;5001187;28;20037;-94
2022/07/05 10:08:55;;;;;;;0.40;0.30;;;17.50;99.90;;;;;;5003433;28;20498;-94
2022/07/05 10:11:22;;;;;;;0.68;0.55;;;17.60;99.70;;;;;;5002916;28;20046;-94
2022/07/05 10:13:49;;;;;;;0.75;0.40;;;17.60;99.70;;;;;;5005357;28;20026;-95
2022/07/05 10:16:20;;;;;;;1.85;0.45;;;17.70;99.40;;;;;;5004973;28;20107;-94
2022/07/05 10:18:46;;;;;;;;;;;17.50;99.20;;;;;;5008797;28;20029;-94
2022/07/05 10:21:14;;;;;;;1.20;0.40;;;17.60;99.60;;;;;;5019348;28;19947;-94
2022/07/05 10:23:44;;;;;;;0.30;0.30;;;17.70;99.70;;;;;;5020603;28;20093;-91
2022/07/05 10:26:12;;;;;;;0.40;0.38;;;18.00;99.90;;;;;;5020797;28;20030;-91
2022/07/05 10:28:40;;;;;;;0.57;0.30;;;18.30;99.50;;;;;;5020740;28;20038;-90
2022/07/05 10:31:09;;;;;;;2.22;0.40;;;18.50;98.90;;;;;;5019412;28;20415;-94
2022/07/05 10:33:35;;;;;;;1.80;0.43;;;18.60;97.90;;;;;;5011203;28;20026;-94
2022/07/05 10:36:03;;;;;;;3.25;0.80;;;18.50;96.90;;;;;;5012265;28;20026;-90
2022/07/05 10:38:29;;;;;;;1.65;0.60;;;18.40;96.50;;;;;;5019802;28;20056;-94
2022/07/05 10:40:59;;;;;;;1.63;0.47;;;18.40;96.10;;;;;;5025656;28;20034;-95
2022/07/05 10:43:26;;;;;;;1.60;0.27;;;18.30;95.60;;;;;;5003670;28;20041;-95
2022/07/05 10:45:52;;;;;;;1.17;0.60;;;18.30;95.50;;;;;;5002393;28;20022;-94
2022/07/05 10:48:20;;;;;;;1.63;0.40;;;18.40;95.40;;;;;;5003848;28;20032;-94
2022/07/05 10:50:48;;;;;;;1.75;0.30;;;18.40;94.60;;;;;;5003919;28;20029;-94
2022/07/05 10:53:14;;;;;;;1.13;0.43;;;18.50;94.30;;;;;;5006802;28;20033;-94
2022/07/05 10:56:11;;;;;;;1.17;0.45;;;18.70;93.90;;;;;;5005786;28;20052;-95
2022/07/05 10:58:46;;;;;;;0.43;0.40;;;18.90;93.50;;;;;;5003219;28;20036;-94
2022/07/05 11:01:12;;;;;;;0.88;0.35;;;19.00;91.50;;;;;;5001611;28;20495;-95
2022/07/05 11:03:40;;;;;;;0.65;0.40;;;18.80;90.80;;;;;;5001758;28;20026;-95
2022/07/05 11:06:07;;;;;;;3.40;0.47;;;18.80;90.70;;;;;;5000320;28;20033;-94
2022/07/05 11:11:27;;;;;;;1.73;0.43;;;18.80;90.20;;;;;;5020141;28;20502;-95
2022/07/05 11:13:58;;;;;;;3.10;0.40;;;19.00;89.30;;;;;;5014315;28;20038;-94
2022/07/05 11:16:25;;;;;;;;;;;19.20;88.90;;;;;;5017795;28;20010;-90
2022/07/05 11:18:53;;;;;;;0.70;0.40;;;19.40;88.60;;;;;;5019959;28;19910;-90
2022/07/05 11:21:20;;;;;;;1.52;0.40;;;19.70;87.30;;;;;;5017611;28;20041;-94
2022/07/05 11:23:46;;;;;;;2.35;0.40;;;20.00;86.40;;;;;;5012593;28;20048;-94
2022/07/05 11:26:13;;;;;;;1.33;0.50;;;20.30;83.70;;;;;;5012907;28;20030;-94
2022/07/05 11:28:47;;;;;;;0.85;0.50;;;20.40;81.80;;;;;;5012859;28;20006;-94
2022/07/05 11:31:42;;;;;;;1.35;0.30;;;20.50;81.00;;;;;;5008141;28;20037;-94
2022/07/05 11:34:17;;;;;;;2.10;0.60;;;20.60;78.70;;;;;;5004332;28;20022;-95
2022/07/05 11:36:43;;;;;;;1.00;0.40;;;20.30;77.50;;;;;;5008053;28;20057;-93
2022/07/05 11:39:19;;;;;;;1.33;0.68;;;20.20;78.20;;;;;;5008441;28;20177;-94
2022/07/05 11:41:47;;;;;;;2.55;0.75;;;20.10;78.10;;;;;;5007502;28;20014;-94
2022/07/05 11:44:13;;;;;;;1.55;0.63;;;20.10;78.70;;;;;;5023967;28;20046;-93
2022/07/05 11:46:41;;;;;;;2.33;0.50;;;20.10;79.00;;;;;;5017085;28;20038;-94
2022/07/05 11:49:06;;;;;;;2.78;0.80;;;19.90;78.10;;;;;;5021291;28;20038;-92
2022/07/05 11:51:32;;;;;;;2.22;0.50;;;20.00;78.10;;;;;;5012392;28;20131;-95
2022/07/05 11:53:58;;;;;;;3.47;0.57;;;20.10;77.90;;;;;;5008639;28;20052;-94
2022/07/05 11:56:24;;;;;;;6.25;1.02;;;20.10;77.50;;;;;;5018685;28;20030;-92
2022/07/05 11:58:50;;;;;;;0.88;0.40;;;20.20;76.90;;;;;;5023506;28;20081;-95
2022/07/05 12:01:16;;;;;;;2.17;1.00;;;20.30;76.50;;;;;;5031204;28;20034;-95
2022/07/05 12:03:52;;;;;;;2.33;0.77;;;20.40;75.20;;;;;;5025839;28;20038;-94
2022/07/05 12:06:20;;;;;;;2.67;0.40;;;20.60;74.80;;;;;;5014774;28;20030;-95
2022/07/05 12:08:46;;;;;;;4.70;0.70;;;20.80;74.00;;;;;;5010220;28;20037;-95
2022/07/05 12:13:57;;;;;;;5.97;0.82;;;21.10;71.40;;;;;;5022284;28;20037;-94
2022/07/05 12:16:25;;;;;;;1.92;0.55;;;21.10;70.80;;;;;;5023932;28;20026;-94
2022/07/05 12:18:55;;;;;;;4.30;0.73;;;21.00;70.60;;;;;;5005580;28;20029;-95
2022/07/05 12:21:21;;;;;;;;;;;21.00;70.80;;;;;;5008155;28;20026;-96
2022/07/05 12:23:48;;;;;;;3.35;0.63;;;21.00;70.40;;;;;;5030456;28;19909;-93
2022/07/05 12:26:19;;;;;;;2.72;0.65;;;20.90;69.60;;;;;;5032965;28;20010;-96
2022/07/05 12:28:46;;;;;;;0.85;0.50;;;21.10;69.40;;;;;;5014798;28;20026;-96
2022/07/05 12:31:20;;;;;;;3.05;0.98;;;21.30;69.10;;;;;;5010290;28;20030;-93
2022/07/05 12:33:46;;;;;;;1.92;0.65;;;21.40;68.30;;;;;;5009916;28;20029;-95
2022/07/05 12:36:17;;;;;;;2.67;0.60;;;21.40;67.90;;;;;;4998381;28;20010;-94
2022/07/05 12:38:43;;;;;;;2.95;0.68;;;21.60;67.60;;;;;;5008107;28;20057;-93
2022/07/05 12:41:09;;;;;;;1.42;0.55;;;21.70;66.20;;;;;;5004029;28;20376;-95
2022/07/05 12:43:51;;;;;;;1.52;0.60;;;21.80;66.30;;;;;;5003757;28;20033;-93
2022/07/05 12:46:17;;;;;;;2.72;0.75;;;21.80;66.10;;;;;;5007302;28;20034;-94
2022/07/05 12:48:43;;;;;;;3.60;0.80;;;21.90;65.60;;;;;;5009639;28;20040;-96
2022/07/05 12:51:10;;;;;;;2.80;0.60;;;22.00;65.10;;;;;;5006773;28;20034;-96
2022/07/05 12:59:17;;;;;;;4.38;0.80;;;22.00;63.20;;;;;;5020450;28;20041;-95
2022/07/05 13:01:44;;;;;;;2.60;0.63;;;21.90;63.60;;;;;;5004581;28;20030;-95
2022/07/05 13:04:16;;;;;;;7.05;1.00;;;21.70;64.00;;;;;;5011752;28;20033;-95
2022/07/05 13:06:51;;;;;;;3.13;0.82;;;21.70;64.30;;;;;;5006591;28;20331;-93
2022/07/05 13:09:32;;;;;;;5.60;0.82;;;21.70;64.60;;;;;;5005379;28;20033;-95
2022/07/05 13:12:11;;;;;;;1.52;0.77;;;21.90;64.80;;;;;;5003659;28;20388;-95